createdAt,value
2019-06-15T00:02:00.770Z,10.97
2019-06-15T00:04:50.664Z,10.80
2019-06-15T00:07:43.658Z,11.40
2019-06-15T00:10:37.289Z,10.40
2019-06-15T00:13:41.632Z,11.43
2019-06-15T00:16:36.206Z,12.03
2019-06-15T00:19:26.974Z,9.90
2019-06-15T00:22:19.181Z,10.77
2019-06-15T00:25:27.253Z,11.33
2019-06-15T00:28:18.658Z,10.77
2019-06-15T00:31:09.780Z,10.53
2019-06-15T00:34:18.276Z,10.27
2019-06-15T00:37:26.734Z,12.30
2019-06-15T00:40:29.221Z,10.10
2019-06-15T00:43:24.423Z,10.57
2019-06-15T00:46:15.896Z,9.27
2019-06-15T00:49:07.951Z,9.33
2019-06-15T00:52:23.209Z,9.60
2019-06-15T00:55:14.285Z,10.80
2019-06-15T00:58:05.291Z,9.77
2019-06-15T01:01:04.764Z,10.17
2019-06-15T01:03:56.822Z,10.40
2019-06-15T01:06:52.731Z,10.43
2019-06-15T01:09:43.350Z,10.90
2019-06-15T01:12:32.801Z,11.23
2019-06-15T01:15:24.913Z,9.47
2019-06-15T01:18:33.510Z,9.57
2019-06-15T01:21:23.050Z,10.07
2019-06-15T01:24:15.073Z,10.93
2019-06-15T01:27:14.977Z,10.27
2019-06-15T01:30:05.308Z,10.90
2019-06-15T01:32:54.599Z,9.97
2019-06-15T01:36:02.727Z,10.80
2019-06-15T01:38:55.126Z,10.57
2019-06-15T01:41:46.959Z,9.90
2019-06-15T01:44:38.714Z,10.50
2019-06-15T01:47:35.848Z,11.03
2019-06-15T01:50:28.371Z,11.53
2019-06-15T01:53:32.893Z,11.40
2019-06-15T01:56:25.884Z,10.03
2019-06-15T01:59:28.960Z,9.70
2019-06-15T02:02:21.097Z,10.67
2019-06-15T02:05:16.671Z,10.50
2019-06-15T02:08:26.877Z,10.90
2019-06-15T02:11:17.393Z,9.80
2019-06-15T02:14:09.147Z,11.03
2019-06-15T02:17:17.247Z,10.47
2019-06-15T02:20:24.542Z,10.47
2019-06-15T02:23:31.026Z,10.73
2019-06-15T02:26:21.325Z,10.10
2019-06-15T02:29:12.483Z,11.50
2019-06-15T02:32:19.452Z,10.83
2019-06-15T02:35:11.392Z,10.03
2019-06-15T02:38:03.564Z,10.93
2019-06-15T02:41:02.215Z,10.70
2019-06-15T02:43:53.833Z,11.07
2019-06-15T02:46:46.861Z,10.43
2019-06-15T02:49:35.996Z,10.23
2019-06-15T02:52:29.640Z,10.93
2019-06-15T02:55:25.433Z,10.43
2019-06-15T02:58:22.935Z,10.50
2019-06-15T03:01:13.216Z,10.67
2019-06-15T03:04:21.295Z,10.20
2019-06-15T03:07:23.862Z,9.43
2019-06-15T03:10:13.480Z,9.90
2019-06-15T03:13:05.634Z,10.17
2019-06-15T03:15:56.310Z,10.13
2019-06-15T03:18:47.696Z,10.70
2019-06-15T03:21:40.379Z,9.97
2019-06-15T03:24:31.030Z,11.33
2019-06-15T03:27:23.561Z,10.37
2019-06-15T03:30:15.740Z,11.07
2019-06-15T03:33:24.930Z,10.53
2019-06-15T03:36:32.994Z,11.30
2019-06-15T03:39:35.345Z,10.57
2019-06-15T03:42:25.806Z,11.73
2019-06-15T03:45:33.290Z,9.70
2019-06-15T03:48:41.450Z,9.90
2019-06-15T03:51:48.595Z,9.87
2019-06-15T03:54:56.436Z,10.70
2019-06-15T03:57:48.237Z,11.80
2019-06-15T04:00:50.731Z,10.20
2019-06-15T04:03:43.158Z,11.37
2019-06-15T04:06:33.425Z,10.57
2019-06-15T04:09:24.830Z,10.60
2019-06-15T04:12:18.911Z,10.80
2019-06-15T04:15:11.742Z,9.90
2019-06-15T04:18:03.049Z,11.07
2019-06-15T04:21:10.318Z,9.13
2019-06-15T04:24:05.938Z,10.47
2019-06-15T04:27:21.526Z,10.77
2019-06-15T04:30:29.574Z,10.53
2019-06-15T04:33:19.823Z,11.57
2019-06-15T04:36:10.832Z,11.00
2019-06-15T04:39:01.773Z,11.27
2019-06-15T04:41:55.721Z,11.00
2019-06-15T04:44:46.827Z,10.20
2019-06-15T04:47:38.898Z,10.20
2019-06-15T04:50:46.132Z,10.93
2019-06-15T04:53:54.259Z,10.70
2019-06-15T04:57:23.759Z,10.97
2019-06-15T05:00:29.081Z,9.70
2019-06-15T05:03:21.069Z,10.60
2019-06-15T05:06:13.897Z,11.33
2019-06-15T05:09:03.734Z,10.97
2019-06-15T05:11:54.198Z,10.27
2019-06-15T05:14:44.340Z,10.77
2019-06-15T05:17:46.124Z,10.20
2019-06-15T05:20:37.090Z,10.60
2019-06-15T05:23:44.991Z,10.73
2019-06-15T05:26:37.158Z,10.90
2019-06-15T05:29:34.892Z,10.57
2019-06-15T05:32:27.805Z,10.90
2019-06-15T05:35:17.170Z,11.27
2019-06-15T05:38:09.248Z,10.40
2019-06-15T05:41:19.079Z,11.50
2019-06-15T05:44:23.201Z,11.10
2019-06-15T05:47:18.042Z,14.23
2019-06-15T05:50:09.159Z,15.60
2019-06-15T05:53:01.500Z,19.20
2019-06-15T05:55:59.397Z,12.77
2019-06-15T05:58:49.584Z,9.70
2019-06-15T06:02:01.251Z,9.40
2019-06-15T06:04:50.556Z,9.57
2019-06-15T06:07:44.016Z,9.60
2019-06-15T06:10:34.098Z,10.03
2019-06-15T06:13:25.932Z,9.80
2019-06-15T06:16:33.879Z,8.90
2019-06-15T06:19:41.785Z,9.77
2019-06-15T06:22:37.967Z,9.73
2019-06-15T06:25:29.947Z,10.00
2019-06-15T06:28:37.685Z,9.60
2019-06-15T06:31:45.781Z,9.30
2019-06-15T06:34:37.846Z,8.47
2019-06-15T06:37:30.663Z,8.67
2019-06-15T06:40:22.529Z,9.47
2019-06-15T06:43:21.614Z,8.60
2019-06-15T06:46:14.624Z,8.23
2019-06-15T06:49:22.559Z,8.70
2019-06-15T06:52:30.261Z,8.60
2019-06-15T06:55:22.382Z,8.37
2019-06-15T06:58:11.727Z,9.40
2019-06-15T07:01:06.180Z,8.90
2019-06-15T07:04:15.204Z,7.93
2019-06-15T07:07:08.899Z,7.80
2019-06-15T07:10:00.688Z,7.33
2019-06-15T07:12:55.733Z,7.27
2019-06-15T07:15:48.517Z,8.17
2019-06-15T07:18:59.295Z,7.63
2019-06-15T07:22:09.822Z,7.70
2019-06-15T07:25:09.011Z,8.30
2019-06-15T07:28:07.855Z,15.37
2019-06-15T07:30:59.386Z,14.10
2019-06-15T07:34:17.642Z,12.50
2019-06-15T07:37:26.044Z,10.37
2019-06-15T07:40:33.863Z,9.23
2019-06-15T07:43:42.649Z,7.70
2019-06-15T07:46:51.101Z,8.50
2019-06-15T07:49:41.740Z,8.80
2019-06-15T07:52:32.777Z,11.50
2019-06-15T07:55:35.654Z,9.23
2019-06-15T07:58:27.652Z,13.97
2019-06-15T08:01:35.869Z,12.53
2019-06-15T08:04:41.557Z,12.50
2019-06-15T08:07:35.488Z,14.97
2019-06-15T08:10:36.048Z,9.70
2019-06-15T08:13:27.030Z,9.43
2019-06-15T08:16:25.438Z,9.00
2019-06-15T08:19:15.933Z,9.10
2019-06-15T08:22:24.248Z,9.47
2019-06-15T08:25:18.100Z,9.00
2019-06-15T08:28:39.514Z,8.47
2019-06-15T08:31:20.043Z,9.83
2019-06-15T08:34:31.552Z,8.87
2019-06-15T08:37:23.222Z,12.50
2019-06-15T08:40:31.041Z,13.13
2019-06-15T08:43:33.773Z,11.50
2019-06-15T08:46:27.288Z,10.83
2019-06-15T08:49:18.272Z,8.67
2019-06-15T08:52:18.615Z,8.17
2019-06-15T08:55:27.173Z,10.23
2019-06-15T08:58:36.105Z,10.73
2019-06-15T09:01:27.846Z,9.30
2019-06-15T09:04:20.034Z,8.00
2019-06-15T09:07:19.813Z,8.67
2019-06-15T09:10:12.513Z,8.40
2019-06-15T09:13:05.434Z,7.90
2019-06-15T09:16:15.525Z,7.87
2019-06-15T09:19:12.364Z,8.47
2019-06-15T09:22:10.530Z,9.40
2019-06-15T09:25:24.346Z,8.73
2019-06-15T09:28:32.057Z,8.37
2019-06-15T09:31:24.515Z,9.03
2019-06-15T09:34:18.817Z,9.07
2019-06-15T09:37:17.328Z,8.93
2019-06-15T09:40:09.616Z,9.67
2019-06-15T09:43:18.212Z,17.57
2019-06-15T09:46:09.404Z,16.00
2019-06-15T09:49:01.616Z,14.60
2019-06-15T09:51:52.525Z,13.73
2019-06-15T09:54:42.802Z,14.57
2019-06-15T09:57:50.751Z,13.43
2019-06-15T10:00:42.806Z,9.80
2019-06-15T10:03:33.889Z,12.23
2019-06-15T10:06:27.991Z,10.70
2019-06-15T10:09:36.187Z,9.03
2019-06-15T10:12:36.010Z,7.80
2019-06-15T10:15:26.701Z,7.10
2019-06-15T10:18:34.204Z,7.10
2019-06-15T10:21:24.954Z,11.20
2019-06-15T10:24:15.788Z,7.63
2019-06-15T10:27:23.976Z,11.33
2019-06-15T10:30:18.970Z,9.77
2019-06-15T10:33:09.826Z,8.67
2019-06-15T10:36:17.588Z,8.70
2019-06-15T10:39:10.391Z,7.63
2019-06-15T10:42:00.693Z,7.50
2019-06-15T10:44:51.648Z,7.93
2019-06-15T10:47:41.789Z,8.83
2019-06-15T10:50:45.977Z,10.83
2019-06-15T10:53:46.034Z,8.03
2019-06-15T10:56:47.525Z,7.07
2019-06-15T10:59:38.896Z,6.47
2019-06-15T11:02:43.264Z,6.83
2019-06-15T11:05:36.399Z,6.40
2019-06-15T11:08:34.062Z,7.30
2019-06-15T11:11:24.876Z,6.27
2019-06-15T11:14:27.917Z,7.30
2019-06-15T11:17:19.438Z,7.17
2019-06-15T11:20:28.268Z,6.43
2019-06-15T11:23:21.742Z,6.77
2019-06-15T11:26:12.994Z,6.83
2019-06-15T11:29:04.972Z,6.20
2019-06-15T11:31:57.571Z,6.47
2019-06-15T11:34:49.310Z,10.60
2019-06-15T11:37:57.184Z,11.97
2019-06-15T11:40:50.120Z,9.80
2019-06-15T11:43:58.245Z,6.93
2019-06-15T11:47:06.418Z,6.53
2019-06-15T11:49:56.878Z,6.13
2019-06-15T11:53:04.799Z,5.83
2019-06-15T11:55:56.213Z,6.20
2019-06-15T11:58:58.854Z,7.07
2019-06-15T12:01:51.342Z,7.10
2019-06-15T12:04:41.359Z,6.23
2019-06-15T12:07:35.745Z,5.83
2019-06-15T12:10:27.350Z,6.63
2019-06-15T12:13:24.201Z,6.00
2019-06-15T12:16:16.005Z,5.83
2019-06-15T12:19:07.246Z,6.90
2019-06-15T12:22:19.397Z,5.70
2019-06-15T12:25:09.613Z,7.50
2019-06-15T12:28:04.088Z,8.40
2019-06-15T12:31:12.382Z,9.30
2019-06-15T12:34:21.256Z,6.57
2019-06-15T12:37:20.043Z,9.07
2019-06-15T12:40:10.870Z,6.57
2019-06-15T12:43:02.778Z,5.90
2019-06-15T12:46:10.895Z,9.00
2019-06-15T12:49:19.025Z,11.10
2019-06-15T12:52:27.333Z,8.27
2019-06-15T12:55:31.756Z,6.63
2019-06-15T12:58:23.300Z,7.57
2019-06-15T13:01:15.204Z,6.60
2019-06-15T13:04:05.563Z,6.47
2019-06-15T13:07:16.413Z,6.67
2019-06-15T13:10:05.801Z,6.97
2019-06-15T13:12:57.460Z,8.90
2019-06-15T13:16:39.314Z,8.40
2019-06-15T13:19:27.297Z,7.33
2019-06-15T13:22:21.688Z,7.23
2019-06-15T13:25:12.701Z,5.57
2019-06-15T13:28:04.691Z,6.93
2019-06-15T13:30:54.907Z,9.37
2019-06-15T13:33:47.475Z,10.27
2019-06-15T13:36:38.913Z,7.50
2019-06-15T13:39:31.645Z,6.50
2019-06-15T13:42:39.210Z,10.40
2019-06-15T13:45:30.479Z,8.73
2019-06-15T13:48:22.038Z,13.00
2019-06-15T13:51:13.873Z,9.60
2019-06-15T13:54:06.793Z,7.47
2019-06-15T13:57:16.965Z,9.80
2019-06-15T14:00:09.219Z,7.50
2019-06-15T14:03:06.125Z,7.87
2019-06-15T14:05:57.922Z,18.10
2019-06-15T14:08:47.826Z,13.23
2019-06-15T14:11:48.123Z,8.30
2019-06-15T14:14:42.976Z,6.30
2019-06-15T14:17:33.975Z,7.40
2019-06-15T14:20:30.582Z,14.23
2019-06-15T14:23:21.829Z,15.80
2019-06-15T14:26:33.298Z,13.50
2019-06-15T14:29:36.270Z,10.77
2019-06-15T14:32:31.148Z,8.00
2019-06-15T14:35:36.843Z,7.93
2019-06-15T14:38:30.631Z,7.47
2019-06-15T14:41:22.239Z,7.67
2019-06-15T14:44:14.463Z,7.07
2019-06-15T14:47:13.514Z,7.10
2019-06-15T14:50:05.406Z,8.23
2019-06-15T14:53:10.444Z,9.63
2019-06-15T14:56:03.005Z,13.40
2019-06-15T14:59:12.850Z,9.13
2019-06-15T15:02:17.508Z,8.53
2019-06-15T15:05:07.031Z,7.23
2019-06-15T15:07:58.187Z,8.90
2019-06-15T15:11:07.191Z,11.90
2019-06-15T15:14:17.364Z,8.70
2019-06-15T15:17:26.845Z,7.77
2019-06-15T15:20:22.373Z,7.13
2019-06-15T15:23:30.139Z,7.70
2019-06-15T15:26:37.820Z,6.93
2019-06-15T15:29:46.394Z,6.97
2019-06-15T15:32:56.955Z,6.33
2019-06-15T15:35:47.395Z,7.20
2019-06-15T15:38:56.127Z,6.70
2019-06-15T15:41:52.324Z,6.50
2019-06-15T15:46:10.095Z,6.53
2019-06-15T15:49:01.879Z,5.77
2019-06-15T15:51:53.295Z,7.50
2019-06-15T15:58:16.646Z,6.33
2019-06-15T16:01:17.146Z,6.50
2019-06-15T16:04:08.270Z,8.00
2019-06-15T16:07:12.872Z,12.77
2019-06-15T16:10:06.416Z,6.63
2019-06-15T16:12:58.665Z,7.30
2019-06-15T16:15:47.869Z,6.83
2019-06-15T16:18:40.566Z,6.20
2019-06-15T16:21:48.266Z,6.20
2019-06-15T16:24:42.609Z,6.20
2019-06-15T16:27:50.235Z,6.60
2019-06-15T16:31:03.816Z,6.50
2019-06-15T16:34:20.573Z,6.50
2019-06-15T16:37:17.211Z,5.97
2019-06-15T16:40:39.596Z,6.93
2019-06-15T16:43:29.786Z,7.30
2019-06-15T16:46:19.100Z,8.37
2019-06-15T16:49:28.492Z,7.80
2019-06-15T16:52:22.106Z,6.93
2019-06-15T16:55:36.835Z,7.23
2019-06-15T16:58:28.369Z,12.50
2019-06-15T17:01:39.538Z,17.47
2019-06-15T17:04:32.182Z,27.60
2019-06-15T17:07:27.712Z,25.40
2019-06-15T17:10:30.613Z,11.17
2019-06-15T17:13:20.230Z,8.53
2019-06-15T17:16:11.002Z,8.57
2019-06-15T17:19:07.301Z,9.13
2019-06-15T17:22:16.821Z,8.63
2019-06-15T17:24:56.408Z,8.70
2019-06-15T17:27:48.067Z,8.10
2019-06-15T17:31:57.016Z,7.73
2019-06-15T17:35:21.264Z,7.20
2019-06-15T17:38:57.839Z,6.93
2019-06-15T17:42:22.513Z,8.20
2019-06-15T17:45:30.889Z,7.67
2019-06-15T17:48:21.390Z,7.40
2019-06-15T17:51:12.501Z,7.40
2019-06-15T17:54:17.037Z,6.17
2019-06-15T17:57:21.861Z,6.87
2019-06-15T18:00:42.830Z,7.87
2019-06-15T18:03:50.599Z,7.43
2019-06-15T18:06:35.999Z,8.07
2019-06-15T18:09:25.940Z,8.70
2019-06-15T18:12:21.595Z,7.90
2019-06-15T18:15:26.560Z,7.90
2019-06-15T18:18:17.985Z,9.20
2019-06-15T18:21:07.105Z,7.60
2019-06-15T18:24:01.349Z,7.80
2019-06-15T18:27:13.546Z,7.87
2019-06-15T18:30:07.375Z,8.53
2019-06-15T18:32:58.500Z,7.97
2019-06-15T18:35:48.447Z,9.40
2019-06-15T18:38:57.598Z,9.37
2019-06-15T18:41:55.953Z,8.60
2019-06-15T18:44:44.796Z,8.10
2019-06-15T18:47:52.731Z,8.40
2019-06-15T18:50:58.415Z,8.73
2019-06-15T18:53:50.405Z,7.57
2019-06-15T18:56:52.309Z,9.23
2019-06-15T18:59:41.995Z,9.10
2019-06-15T19:02:45.509Z,9.97
2019-06-15T19:05:37.847Z,7.03
2019-06-15T19:08:46.967Z,7.90
2019-06-15T19:11:36.787Z,8.27
2019-06-15T19:14:38.415Z,8.37
2019-06-15T19:17:28.685Z,8.27
2019-06-15T19:20:18.776Z,8.37
2019-06-15T19:23:16.769Z,7.27
2019-06-15T19:26:07.472Z,6.57
2019-06-15T19:29:31.704Z,7.10
2019-06-15T19:32:26.307Z,6.80
2019-06-15T19:35:36.249Z,6.60
2019-06-15T19:38:28.192Z,6.97
2019-06-15T19:41:19.455Z,6.67
2019-06-15T19:44:16.495Z,7.23
2019-06-15T19:47:11.471Z,6.00
2019-06-15T19:50:19.918Z,5.93
2019-06-15T19:53:28.537Z,5.00
2019-06-15T19:56:37.255Z,5.07
2019-06-15T19:59:32.791Z,5.37
2019-06-15T20:02:26.831Z,5.37
2019-06-15T20:05:19.914Z,5.20
2019-06-15T20:08:11.761Z,5.23
2019-06-15T20:11:08.343Z,5.00
2019-06-15T20:14:19.217Z,4.90
2019-06-15T20:17:18.476Z,5.17
2019-06-15T20:20:12.353Z,4.43
2019-06-15T20:23:28.929Z,4.50
2019-06-15T20:26:39.583Z,4.70
2019-06-15T20:29:31.269Z,3.90
2019-06-15T20:32:40.584Z,4.90
2019-06-15T20:35:47.517Z,4.50
2019-06-15T20:38:38.457Z,4.40
2019-06-15T20:41:41.976Z,4.53
2019-06-15T20:44:33.502Z,4.97
2019-06-15T20:47:29.127Z,4.90
2019-06-15T20:54:12.086Z,3.97
2019-06-15T20:57:08.491Z,4.50
2019-06-15T21:00:06.223Z,3.83
2019-06-15T21:02:56.433Z,4.67
2019-06-15T21:05:50.507Z,4.70
2019-06-15T21:08:41.579Z,4.80
2019-06-15T21:11:43.090Z,4.00
2019-06-15T21:14:37.646Z,4.50
2019-06-15T21:17:40.559Z,4.00
2019-06-15T21:20:31.539Z,4.63
2019-06-15T21:23:37.207Z,3.70
2019-06-15T21:26:29.204Z,4.00
2019-06-15T21:29:29.523Z,4.00
2019-06-15T21:32:55.985Z,3.80
2019-06-15T21:35:52.195Z,4.23
2019-06-15T21:38:48.940Z,5.07
2019-06-15T21:41:38.029Z,4.60
2019-06-15T21:44:29.446Z,4.50
2019-06-15T21:47:28.520Z,4.70
2019-06-15T21:53:59.470Z,4.27
2019-06-15T21:56:51.321Z,4.33
2019-06-15T21:59:42.463Z,4.40
2019-06-15T22:02:36.313Z,4.10
2019-06-15T22:05:28.711Z,4.20
2019-06-15T22:08:37.175Z,4.13
2019-06-15T22:11:48.299Z,4.60
2019-06-15T22:14:37.895Z,4.03
2019-06-15T22:17:28.798Z,4.30
2019-06-15T22:20:26.308Z,4.47
2019-06-15T22:23:16.253Z,4.27
2019-06-15T22:26:08.419Z,4.33
2019-06-15T22:29:00.326Z,4.60
2019-06-15T22:32:09.452Z,4.50
2019-06-15T22:35:01.493Z,4.13
2019-06-15T22:37:59.827Z,5.07
2019-06-15T22:41:07.603Z,5.57
2019-06-15T22:44:16.896Z,4.47
2019-06-15T22:47:27.090Z,4.90
2019-06-15T22:50:23.227Z,4.73
2019-06-15T22:53:12.874Z,4.90
2019-06-15T22:56:06.575Z,4.80
2019-06-15T22:59:01.847Z,4.20
2019-06-15T23:02:11.573Z,4.80
2019-06-15T23:05:20.607Z,5.00
2019-06-15T23:08:11.855Z,4.63
2019-06-15T23:11:06.721Z,4.27
2019-06-15T23:13:58.244Z,4.50
2019-06-15T23:16:49.768Z,4.43
2019-06-15T23:19:40.340Z,5.10
2019-06-15T23:22:31.655Z,3.53
2019-06-15T23:25:22.606Z,4.13
2019-06-15T23:28:12.204Z,4.93
2019-06-15T23:31:02.208Z,4.20
2019-06-15T23:33:53.267Z,4.40
2019-06-15T23:36:56.329Z,3.90
2019-06-15T23:40:07.377Z,4.00
2019-06-15T23:43:01.856Z,4.50
2019-06-15T23:45:51.042Z,4.00
2019-06-15T23:48:42.191Z,5.00
2019-06-15T23:51:38.591Z,4.53
2019-06-15T23:54:30.962Z,4.67
2019-06-15T23:57:38.900Z,4.83
